Time;durP1;ratioP1;P1;durP2;ratioP2;P2;SDS_P1;SDS_P2;PMS_P1;PMS_P2;Temp;Humidity;BMP_temperature;BMP_pressure;BME280_temperature;BME280_humidity;BME280_pressure;Samples;Min_cycle;Max_cycle;Signal;HPM_P1;HPM_P2
2022/12/28 00:00:28;;;;;;;7.20;3.33;;;;;;;;;;4969213;28;20023;-78
2022/12/28 00:02:55;;;;;;;6.80;3.30;;;;;;;;;;4966695;28;20033;-78
2022/12/28 00:05:21;;;;;;;6.55;3.35;;;;;;;;;;4971129;28;20031;-78
2022/12/28 00:07:46;;;;;;;8.02;3.03;;;;;;;;;;4970031;28;20035;-78
2022/12/28 00:10:14;;;;;;;4.70;3.00;;;;;;;;;;4967652;28;20007;-78
2022/12/28 00:12:39;;;;;;;3.70;2.33;;;;;;;;;;4969005;28;20125;-78
2022/12/28 00:15:05;;;;;;;5.53;3.08;;;;;;;;;;4972290;28;20462;-78
2022/12/28 00:17:30;;;;;;;5.35;2.95;;;;;;;;;;4972692;28;20457;-77
2022/12/28 00:19:58;;;;;;;2.92;2.38;;;;;;;;;;4971502;28;20133;-77
2022/12/28 00:22:26;;;;;;;3.45;2.10;;;;;;;;;;4972300;28;20034;-77
2022/12/28 00:24:51;;;;;;;2.92;1.95;;;;;;;;;;4972117;28;20031;-77
2022/12/28 00:27:17;;;;;;;3.63;2.10;;;;;;;;;;4968687;28;20030;-77
2022/12/28 00:29:42;;;;;;;5.72;2.10;;;;;;;;;;4968548;28;20158;-77
2022/12/28 00:32:07;;;;;;;2.78;1.90;;;;;;;;;;4970066;28;20653;-77
2022/12/28 00:34:33;;;;;;;3.85;1.70;;;;;;;;;;4969835;28;20035;-78
2022/12/28 00:36:58;;;;;;;2.55;1.77;;;;;;;;;;4972824;28;20029;-77
2022/12/28 00:39:23;;;;;;;3.83;2.10;;;;;;;;;;4967624;28;20453;-76
2022/12/28 00:41:56;;;;;;;4.10;2.13;;;;;;;;;;4987712;28;20043;-78
2022/12/28 00:44:21;;;;;;;3.15;1.80;;;;;;;;;;4964636;28;20030;-77
2022/12/28 00:46:49;;;;;;;4.22;2.28;;;;;;;;;;4969549;28;20125;-78
2022/12/28 00:49:14;;;;;;;2.15;1.90;;;;;;;;;;4986824;28;20034;-78
2022/12/28 00:51:42;;;;;;;3.60;1.75;;;;;;;;;;4971666;28;20034;-78
2022/12/28 00:54:08;;;;;;;3.58;1.77;;;;;;;;;;4970579;28;20054;-77
2022/12/28 00:56:33;;;;;;;3.50;1.92;;;;;;;;;;4971147;28;20070;-79
2022/12/28 00:58:59;;;;;;;5.22;1.73;;;;;;;;;;4972937;28;20035;-78
2022/12/28 01:01:28;;;;;;;5.75;1.88;;;;;;;;;;4971293;28;20069;-78
2022/12/28 01:03:55;;;;;;;4.90;1.63;;;;;;;;;;4987211;28;20131;-78
2022/12/28 01:06:24;;;;;;;2.65;1.42;;;;;;;;;;4969980;28;20061;-78
2022/12/28 01:08:50;;;;;;;2.13;1.50;;;;;;;;;;4972911;28;20293;-78
2022/12/28 01:11:25;;;;;;;3.33;1.60;;;;;;;;;;4972129;28;20062;-77
2022/12/28 01:13:52;;;;;;;4.45;1.65;;;;;;;;;;4970920;28;20038;-77
2022/12/28 01:16:26;;;;;;;4.43;1.77;;;;;;;;;;4984593;28;20031;-78
2022/12/28 01:18:54;;;;;;;2.30;1.27;;;;;;;;;;4972507;28;20042;-77
2022/12/28 01:21:21;;;;;;;3.05;1.45;;;;;;;;;;4968311;28;20019;-77
2022/12/28 01:23:50;;;;;;;1.85;1.63;;;;;;;;;;4970781;28;20041;-76
2022/12/28 01:26:15;;;;;;;2.22;1.60;;;;;;;;;;4965559;28;20367;-76
2022/12/28 01:28:41;;;;;;;2.33;1.30;;;;;;;;;;4990216;28;20053;-76
2022/12/28 01:31:13;;;;;;;1.88;1.42;;;;;;;;;;4986001;28;20035;-77
2022/12/28 01:33:38;;;;;;;2.30;1.40;;;;;;;;;;4964487;28;20030;-77
2022/12/28 01:36:11;;;;;;;1.42;1.10;;;;;;;;;;4968569;28;20025;-77
2022/12/28 01:38:38;;;;;;;6.43;1.80;;;;;;;;;;4985085;28;20023;-78
2022/12/28 01:41:11;;;;;;;3.92;1.52;;;;;;;;;;4970204;28;20463;-77
2022/12/28 01:43:52;;;;;;;3.55;1.35;;;;;;;;;;4970996;28;20476;-76
2022/12/28 01:46:21;;;;;;;1.58;1.30;;;;;;;;;;4969028;28;20388;-78
2022/12/28 01:48:54;;;;;;;2.55;1.75;;;;;;;;;;4972985;28;20034;-78
2022/12/28 01:51:25;;;;;;;1.65;1.50;;;;;;;;;;4969655;28;20092;-78
2022/12/28 01:53:53;;;;;;;1.98;1.60;;;;;;;;;;4966459;28;20043;-78
2022/12/28 01:56:19;;;;;;;2.70;1.48;;;;;;;;;;4968335;28;20034;-78
2022/12/28 01:58:46;;;;;;;2.63;1.70;;;;;;;;;;4968933;28;20031;-78
2022/12/28 02:01:16;;;;;;;2.17;1.60;;;;;;;;;;4971679;28;20027;-78
2022/12/28 02:03:44;;;;;;;3.85;1.40;;;;;;;;;;4971267;28;20062;-78
2022/12/28 02:06:12;;;;;;;3.45;1.55;;;;;;;;;;4972590;28;20031;-78
2022/12/28 02:08:42;;;;;;;2.25;1.70;;;;;;;;;;4972249;28;20065;-78
2022/12/28 02:11:15;;;;;;;3.03;1.98;;;;;;;;;;4976124;28;20516;-78
2022/12/28 02:13:43;;;;;;;2.38;1.50;;;;;;;;;;4968606;28;20043;-78
2022/12/28 02:16:12;;;;;;;3.78;1.58;;;;;;;;;;4969491;28;20026;-78
2022/12/28 02:18:41;;;;;;;3.03;1.63;;;;;;;;;;4983209;28;20648;-78
2022/12/28 02:21:09;;;;;;;6.22;2.10;;;;;;;;;;4976051;28;20371;-78
2022/12/28 02:24:09;;;;;;;2.17;1.80;;;;;;;;;;4972565;28;20482;-78
2022/12/28 02:26:42;;;;;;;;;;;;;;;;;;4990355;28;20046;-78
2022/12/28 02:29:25;;;;;;;5.35;2.15;;;;;;;;;;4972674;28;19914;-79
2022/12/28 02:31:57;;;;;;;2.60;2.30;;;;;;;;;;4972178;28;20038;-78
2022/12/28 02:34:36;;;;;;;3.10;1.95;;;;;;;;;;4973958;28;20039;-78
2022/12/28 02:37:09;;;;;;;4.88;2.33;;;;;;;;;;4989376;28;20094;-78
2022/12/28 02:39:43;;;;;;;2.53;2.10;;;;;;;;;;4974415;28;20081;-78
2022/12/28 02:42:09;;;;;;;5.13;2.25;;;;;;;;;;4972153;28;20041;-78
2022/12/28 02:50:11;;;;;;;2.38;1.95;;;;;;;;;;4972039;28;20041;-78
2022/12/28 02:52:52;;;;;;;3.50;1.80;;;;;;;;;;4968483;28;20061;-79
2022/12/28 02:58:23;;;;;;;3.17;1.90;;;;;;;;;;4974896;28;20049;-78
2022/12/28 03:01:16;;;;;;;5.07;2.40;;;;;;;;;;4965861;28;20043;-78
2022/12/28 03:04:15;;;;;;;4.65;2.20;;;;;;;;;;4966738;28;20022;-78
2022/12/28 03:10:05;;;;;;;6.35;2.22;;;;;;;;;;4971737;28;20066;-78
2022/12/28 03:12:37;;;;;;;3.75;1.92;;;;;;;;;;4974866;28;20027;-78
2022/12/28 03:15:11;;;;;;;3.80;2.05;;;;;;;;;;4966561;28;20077;-78
2022/12/28 03:31:35;;;;;;;3.33;1.73;;;;;;;;;;4960249;28;20030;-78
2022/12/28 03:34:07;;;;;;;3.83;2.10;;;;;;;;;;4982243;28;20035;-78
2022/12/28 03:36:46;;;;;;;2.20;1.65;;;;;;;;;;4968046;28;20027;-78
2022/12/28 03:39:30;;;;;;;4.03;1.75;;;;;;;;;;4966969;28;20042;-77
2022/12/28 03:44:53;;;;;;;2.55;1.60;;;;;;;;;;4965414;28;20105;-77
2022/12/28 03:47:24;;;;;;;4.63;1.60;;;;;;;;;;4974088;28;20027;-78
2022/12/28 03:49:52;;;;;;;2.38;1.88;;;;;;;;;;4969019;28;20031;-77
2022/12/28 03:52:17;;;;;;;2.00;1.70;;;;;;;;;;4962673;28;20063;-77
2022/12/28 03:54:43;;;;;;;4.55;1.65;;;;;;;;;;4987065;28;20026;-77
2022/12/28 03:57:08;;;;;;;3.15;1.70;;;;;;;;;;4973275;28;20572;-77
2022/12/28 03:59:36;;;;;;;2.13;1.40;;;;;;;;;;4974740;28;20015;-77
2022/12/28 04:02:02;;;;;;;2.17;1.50;;;;;;;;;;4988529;28;20023;-77
2022/12/28 04:04:27;;;;;;;1.60;1.33;;;;;;;;;;4976469;28;20070;-77
2022/12/28 04:06:55;;;;;;;2.78;1.40;;;;;;;;;;4968640;28;20022;-77
2022/12/28 04:09:22;;;;;;;3.50;1.55;;;;;;;;;;4973259;28;20054;-77
2022/12/28 04:11:48;;;;;;;2.17;1.48;;;;;;;;;;4974337;28;20113;-79
2022/12/28 04:14:13;;;;;;;2.15;1.25;;;;;;;;;;4973840;28;20065;-77
2022/12/28 04:16:41;;;;;;;3.40;1.50;;;;;;;;;;4973499;28;20026;-78
2022/12/28 04:19:09;;;;;;;4.13;1.30;;;;;;;;;;4965409;28;20117;-78
2022/12/28 04:21:34;;;;;;;4.75;1.55;;;;;;;;;;4988851;28;20014;-77
2022/12/28 04:24:02;;;;;;;2.42;1.50;;;;;;;;;;4970806;28;20039;-77
2022/12/28 04:26:28;;;;;;;3.00;1.38;;;;;;;;;;4972711;28;20041;-77
2022/12/28 04:28:53;;;;;;;4.28;1.50;;;;;;;;;;4969620;28;20023;-77
2022/12/28 04:31:21;;;;;;;5.10;1.50;;;;;;;;;;4974935;28;20441;-77
2022/12/28 04:33:46;;;;;;;2.15;1.17;;;;;;;;;;4973017;28;20031;-77
2022/12/28 04:36:14;;;;;;;3.33;1.40;;;;;;;;;;4971672;28;20053;-77
2022/12/28 04:38:40;;;;;;;3.33;1.60;;;;;;;;;;4974859;28;20026;-77
2022/12/28 04:41:08;;;;;;;3.75;1.48;;;;;;;;;;4970233;28;20443;-77
2022/12/28 04:43:36;;;;;;;5.28;1.40;;;;;;;;;;4969664;28;20031;-77
2022/12/28 04:46:06;;;;;;;2.00;1.38;;;;;;;;;;4974605;28;20437;-78
2022/12/28 04:48:33;;;;;;;2.42;1.20;;;;;;;;;;4980232;28;20641;-78
2022/12/28 04:51:05;;;;;;;3.28;1.65;;;;;;;;;;4978551;28;20027;-78
2022/12/28 04:53:30;;;;;;;9.30;2.33;;;;;;;;;;4976166;28;20030;-78
2022/12/28 04:56:04;;;;;;;3.08;2.10;;;;;;;;;;4979132;28;20027;-78
2022/12/28 04:58:32;;;;;;;3.40;1.60;;;;;;;;;;4976741;28;20023;-78
2022/12/28 05:01:06;;;;;;;3.90;1.48;;;;;;;;;;4970144;28;20023;-77
2022/12/28 05:03:32;;;;;;;5.03;1.67;;;;;;;;;;4976687;28;20026;-78
2022/12/28 05:06:01;;;;;;;3.22;1.67;;;;;;;;;;4990961;28;20462;-78
2022/12/28 05:08:30;;;;;;;7.00;2.55;;;;;;;;;;4976872;28;20096;-78
2022/12/28 05:10:59;;;;;;;4.10;2.00;;;;;;;;;;4971020;28;20110;-79
2022/12/28 05:13:27;;;;;;;6.78;2.30;;;;;;;;;;4967819;28;20121;-79
2022/12/28 05:15:52;;;;;;;5.63;2.20;;;;;;;;;;4972032;28;20468;-79
2022/12/28 05:18:18;;;;;;;4.22;2.00;;;;;;;;;;4972304;28;20058;-78
2022/12/28 05:20:43;;;;;;;2.85;1.90;;;;;;;;;;4970409;28;20113;-78
2022/12/28 05:23:11;;;;;;;4.30;2.22;;;;;;;;;;4988118;28;20083;-78
2022/12/28 05:25:36;;;;;;;4.55;2.50;;;;;;;;;;4983806;28;20030;-78
2022/12/28 05:28:04;;;;;;;5.20;2.42;;;;;;;;;;4973052;28;20023;-78
2022/12/28 05:30:32;;;;;;;4.85;2.30;;;;;;;;;;4974082;28;20033;-78
2022/12/28 05:32:57;;;;;;;4.30;1.80;;;;;;;;;;4973414;28;20034;-78
2022/12/28 05:35:23;;;;;;;4.97;2.03;;;;;;;;;;4974429;28;20035;-78
2022/12/28 05:37:48;;;;;;;5.20;2.67;;;;;;;;;;4971549;28;20039;-78
2022/12/28 05:40:16;;;;;;;4.97;2.95;;;;;;;;;;4971123;28;20025;-78
2022/12/28 05:42:41;;;;;;;4.85;2.53;;;;;;;;;;4963578;28;20031;-79
2022/12/28 05:45:11;;;;;;;5.35;2.17;;;;;;;;;;4971206;28;20074;-78
2022/12/28 05:47:37;;;;;;;5.13;2.30;;;;;;;;;;4969699;28;20027;-78
2022/12/28 05:50:02;;;;;;;3.83;2.08;;;;;;;;;;4969104;28;20022;-78
2022/12/28 05:52:29;;;;;;;3.80;2.33;;;;;;;;;;4971089;28;20034;-78
2022/12/28 05:54:57;;;;;;;4.53;1.92;;;;;;;;;;4970196;28;20049;-78
2022/12/28 05:57:22;;;;;;;4.47;2.65;;;;;;;;;;4972403;28;20062;-78
2022/12/28 05:59:48;;;;;;;4.75;2.97;;;;;;;;;;4967981;28;20061;-78
2022/12/28 06:02:13;;;;;;;8.15;3.30;;;;;;;;;;4968374;28;20440;-76
2022/12/28 06:04:38;;;;;;;3.17;2.53;;;;;;;;;;4967582;28;20034;-78
2022/12/28 06:07:04;;;;;;;3.67;2.60;;;;;;;;;;4970612;28;20034;-79
2022/12/28 06:09:29;;;;;;;5.32;2.78;;;;;;;;;;4967622;28;20023;-78
2022/12/28 06:11:54;;;;;;;5.78;2.90;;;;;;;;;;4972873;28;20026;-78
2022/12/28 06:14:22;;;;;;;7.68;3.13;;;;;;;;;;4971060;28;20433;-78
2022/12/28 06:16:47;;;;;;;5.25;3.08;;;;;;;;;;4970469;28;20035;-77
2022/12/28 06:19:17;;;;;;;7.10;3.35;;;;;;;;;;4987750;28;20061;-77
2022/12/28 06:21:42;;;;;;;8.02;3.25;;;;;;;;;;4970040;28;20058;-78
2022/12/28 06:24:08;;;;;;;10.25;4.25;;;;;;;;;;4971396;28;20069;-76
2022/12/28 06:26:36;;;;;;;5.13;3.30;;;;;;;;;;4969688;28;20035;-77
2022/12/28 06:29:01;;;;;;;6.57;3.00;;;;;;;;;;4987232;28;20034;-77
2022/12/28 06:31:30;;;;;;;4.57;2.35;;;;;;;;;;4969931;28;20018;-77
2022/12/28 06:33:58;;;;;;;5.35;3.45;;;;;;;;;;4969201;28;20038;-77
2022/12/28 06:36:26;;;;;;;8.13;4.18;;;;;;;;;;4986428;28;20066;-76
2022/12/28 06:38:55;;;;;;;6.00;3.42;;;;;;;;;;4969145;28;20401;-76
2022/12/28 06:41:21;;;;;;;7.65;3.67;;;;;;;;;;4985866;28;20548;-76
2022/12/28 06:43:47;;;;;;;9.32;3.70;;;;;;;;;;4971335;28;20038;-76
2022/12/28 06:46:14;;;;;;;6.70;3.17;;;;;;;;;;4967880;28;20027;-76
2022/12/28 06:48:40;;;;;;;7.40;4.15;;;;;;;;;;4985458;28;20038;-78
2022/12/28 06:51:30;;;;;;;9.75;4.53;;;;;;;;;;4971667;28;20027;-78
2022/12/28 06:53:56;;;;;;;;;;;;;;;;;;4969925;28;20058;-77
2022/12/28 06:56:25;;;;;;;5.63;3.22;;;;;;;;;;4972088;28;19914;-77
2022/12/28 06:58:53;;;;;;;8.30;3.63;;;;;;;;;;4967980;28;20031;-77
2022/12/28 07:01:27;;;;;;;5.60;3.15;;;;;;;;;;4981758;28;20265;-76
2022/12/28 07:03:54;;;;;;;5.20;2.97;;;;;;;;;;4970441;28;20466;-77
2022/12/28 07:06:25;;;;;;;9.27;3.92;;;;;;;;;;4970477;28;20470;-77
2022/12/28 07:08:51;;;;;;;7.97;3.67;;;;;;;;;;4970496;28;20117;-77
2022/12/28 07:11:22;;;;;;;7.88;3.40;;;;;;;;;;4971516;28;20363;-77
2022/12/28 07:13:48;;;;;;;8.70;4.35;;;;;;;;;;4966367;28;20031;-77
2022/12/28 07:16:16;;;;;;;6.80;3.95;;;;;;;;;;4965912;28;20076;-77
2022/12/28 07:18:42;;;;;;;5.45;3.10;;;;;;;;;;4972530;28;20109;-78
2022/12/28 07:21:10;;;;;;;6.25;2.92;;;;;;;;;;4980835;28;20023;-76
2022/12/28 07:23:36;;;;;;;14.90;3.33;;;;;;;;;;4969644;28;20039;-76
2022/12/28 07:26:13;;;;;;;6.03;3.40;;;;;;;;;;4983035;28;20155;-76
2022/12/28 07:28:40;;;;;;;3.78;2.42;;;;;;;;;;4969238;28;20062;-76
2022/12/28 07:31:13;;;;;;;4.53;3.13;;;;;;;;;;4963594;28;20369;-75
2022/12/28 07:33:39;;;;;;;5.47;3.28;;;;;;;;;;4984698;28;20500;-76
2022/12/28 07:36:07;;;;;;;6.60;3.28;;;;;;;;;;4967965;28;20033;-75
2022/12/28 07:38:32;;;;;;;6.55;3.05;;;;;;;;;;4970983;28;20023;-74
2022/12/28 07:41:12;;;;;;;4.63;2.85;;;;;;;;;;4977505;28;20090;-76
2022/12/28 07:43:40;;;;;;;5.47;2.95;;;;;;;;;;4970784;28;20031;-73
2022/12/28 07:46:14;;;;;;;5.35;2.80;;;;;;;;;;4962466;28;20027;-74
2022/12/28 07:48:41;;;;;;;4.10;2.67;;;;;;;;;;4966986;28;20035;-75
2022/12/28 07:51:10;;;;;;;4.15;2.95;;;;;;;;;;4984172;28;20031;-74
2022/12/28 07:53:37;;;;;;;7.20;4.22;;;;;;;;;;4968651;28;20031;-73
2022/12/28 07:56:05;;;;;;;5.15;3.30;;;;;;;;;;4968590;28;20070;-74
2022/12/28 07:58:31;;;;;;;10.18;4.53;;;;;;;;;;4970780;28;20038;-73
2022/12/28 08:01:21;;;;;;;9.52;4.30;;;;;;;;;;4985173;28;20219;-75
2022/12/28 08:03:46;;;;;;;;;;;;;;;;;;4965475;28;20370;-75
2022/12/28 08:06:18;;;;;;;8.38;4.90;;;;;;;;;;4960722;28;19914;-75
2022/12/28 08:08:45;;;;;;;9.20;4.68;;;;;;;;;;4979567;28;20500;-75
2022/12/28 08:11:13;;;;;;;9.10;5.10;;;;;;;;;;4969633;28;20050;-75
2022/12/28 08:13:41;;;;;;;10.15;5.72;;;;;;;;;;4963766;28;20019;-76
2022/12/28 08:16:08;;;;;;;10.85;6.07;;;;;;;;;;4970650;28;20482;-75
2022/12/28 08:18:33;;;;;;;13.85;7.70;;;;;;;;;;4965349;28;20041;-75
2022/12/28 08:21:07;;;;;;;17.73;7.45;;;;;;;;;;4969717;28;20019;-75
2022/12/28 08:23:35;;;;;;;17.20;8.70;;;;;;;;;;4970539;28;20034;-75
2022/12/28 08:26:20;;;;;;;12.55;5.97;;;;;;;;;;4969468;28;20035;-75
2022/12/28 08:28:48;;;;;;;15.23;7.15;;;;;;;;;;4968232;28;20486;-76
2022/12/28 08:31:16;;;;;;;14.50;7.28;;;;;;;;;;4968463;28;20022;-75
2022/12/28 08:33:42;;;;;;;15.18;7.60;;;;;;;;;;4970811;28;20174;-75
2022/12/28 08:36:08;;;;;;;25.27;8.68;;;;;;;;;;4971335;28;20031;-75
2022/12/28 08:38:35;;;;;;;15.55;6.43;;;;;;;;;;4988662;28;20039;-76
2022/12/28 08:41:03;;;;;;;18.08;7.57;;;;;;;;;;4971465;28;20340;-75
2022/12/28 08:43:32;;;;;;;10.60;6.05;;;;;;;;;;4987486;28;20038;-75
2022/12/28 08:46:04;;;;;;;8.73;4.88;;;;;;;;;;4982365;28;20048;-76
2022/12/28 08:48:30;;;;;;;9.98;5.90;;;;;;;;;;4970140;28;20038;-76
2022/12/28 08:51:08;;;;;;;11.93;6.00;;;;;;;;;;4969879;28;20026;-76
2022/12/28 08:53:39;;;;;;;11.68;5.85;;;;;;;;;;4972221;28;20026;-77
2022/12/28 08:56:11;;;;;;;9.85;5.30;;;;;;;;;;4970394;28;20038;-77
2022/12/28 08:58:38;;;;;;;11.57;5.53;;;;;;;;;;4966652;28;20026;-77
2022/12/28 09:01:16;;;;;;;10.65;5.40;;;;;;;;;;4957984;28;20123;-74
2022/12/28 09:03:44;;;;;;;11.98;5.65;;;;;;;;;;4971666;28;20030;-76
2022/12/28 09:06:13;;;;;;;9.70;5.60;;;;;;;;;;4971999;28;20018;-76
2022/12/28 09:08:39;;;;;;;11.48;6.22;;;;;;;;;;4971127;28;20062;-76
2022/12/28 09:11:10;;;;;;;11.75;6.30;;;;;;;;;;4966403;28;20042;-76
2022/12/28 09:13:36;;;;;;;10.50;5.75;;;;;;;;;;4982591;28;20026;-76
2022/12/28 09:16:07;;;;;;;9.48;5.60;;;;;;;;;;4965257;28;20027;-77
2022/12/28 09:18:33;;;;;;;10.95;5.90;;;;;;;;;;4968501;28;20026;-75
2022/12/28 09:21:13;;;;;;;12.98;7.03;;;;;;;;;;4972649;28;20029;-76
2022/12/28 09:23:40;;;;;;;12.82;6.80;;;;;;;;;;4986078;28;20073;-77
2022/12/28 09:26:07;;;;;;;13.57;6.75;;;;;;;;;;4973813;28;20529;-77
2022/12/28 09:28:33;;;;;;;11.45;6.20;;;;;;;;;;4970354;28;20050;-76
2022/12/28 09:31:02;;;;;;;9.80;5.68;;;;;;;;;;4967469;28;20618;-77
2022/12/28 09:36:11;;;;;;;10.35;5.70;;;;;;;;;;4972567;28;20127;-76
2022/12/28 09:38:37;;;;;;;14.73;6.43;;;;;;;;;;4965459;28;20310;-76
2022/12/28 09:41:21;;;;;;;13.75;6.22;;;;;;;;;;4969861;28;20027;-77
2022/12/28 09:43:49;;;;;;;11.65;5.95;;;;;;;;;;4970273;28;20027;-77
2022/12/28 09:46:20;;;;;;;9.82;5.85;;;;;;;;;;4970221;28;20413;-77
2022/12/28 09:48:52;;;;;;;9.40;5.38;;;;;;;;;;4971522;28;20041;-78
2022/12/28 09:51:29;;;;;;;11.52;6.00;;;;;;;;;;4971599;28;20159;-75
2022/12/28 09:53:54;;;;;;;9.85;5.65;;;;;;;;;;4970513;28;20058;-75
2022/12/28 09:56:28;;;;;;;11.40;6.28;;;;;;;;;;4971480;28;20082;-76
2022/12/28 09:58:54;;;;;;;10.70;5.75;;;;;;;;;;4969503;28;20154;-76
2022/12/28 10:01:21;;;;;;;8.75;5.60;;;;;;;;;;4972903;28;20327;-77
2022/12/28 10:03:47;;;;;;;10.45;6.55;;;;;;;;;;4969053;28;20066;-77
2022/12/28 10:06:25;;;;;;;7.63;4.70;;;;;;;;;;4966777;28;20027;-77
2022/12/28 10:08:55;;;;;;;20.92;8.55;;;;;;;;;;4968896;28;20031;-75
2022/12/28 10:11:24;;;;;;;9.20;5.30;;;;;;;;;;4967382;28;20034;-77
2022/12/28 10:13:55;;;;;;;13.18;6.22;;;;;;;;;;4972261;28;20385;-77
2022/12/28 10:16:22;;;;;;;9.68;5.45;;;;;;;;;;4971070;28;20487;-76
2022/12/28 10:18:48;;;;;;;7.78;5.15;;;;;;;;;;4964853;28;20050;-76
2022/12/28 10:21:22;;;;;;;9.73;5.65;;;;;;;;;;4972253;28;20018;-77
2022/12/28 10:23:52;;;;;;;11.10;6.35;;;;;;;;;;4972275;28;20023;-77
2022/12/28 10:26:21;;;;;;;7.93;5.47;;;;;;;;;;4972283;28;20027;-76
2022/12/28 10:28:51;;;;;;;9.00;5.50;;;;;;;;;;4985958;28;20066;-76
2022/12/28 10:31:31;;;;;;;11.30;5.85;;;;;;;;;;4969837;28;20305;-76
2022/12/28 10:33:57;;;;;;;7.75;4.80;;;;;;;;;;4968886;28;20042;-76
2022/12/28 10:36:26;;;;;;;7.78;5.03;;;;;;;;;;4966580;28;20031;-76
2022/12/28 10:38:54;;;;;;;;;;;;;;;;;;4969067;28;20027;-75
2022/12/28 10:41:35;;;;;;;12.65;5.63;;;;;;;;;;4968440;28;20366;-77
2022/12/28 10:44:13;;;;;;;8.63;4.68;;;;;;;;;;4982789;28;20126;-76
2022/12/28 10:46:51;;;;;;;7.88;4.05;;;;;;;;;;4969645;28;20034;-76
2022/12/28 10:49:16;;;;;;;6.05;3.65;;;;;;;;;;4967482;28;20033;-76
2022/12/28 10:52:03;;;;;;;6.82;3.97;;;;;;;;;;4971003;28;20034;-76
2022/12/28 10:54:37;;;;;;;6.57;3.40;;;;;;;;;;4967009;28;20030;-76
2022/12/28 10:57:03;;;;;;;4.80;3.22;;;;;;;;;;4985195;28;20038;-76
2022/12/28 10:59:30;;;;;;;4.22;2.83;;;;;;;;;;4967434;28;20032;-77
2022/12/28 11:02:26;;;;;;;4.20;3.25;;;;;;;;;;4969316;28;20031;-76
2022/12/28 11:04:53;;;;;;;5.35;3.50;;;;;;;;;;4967704;28;20039;-77
2022/12/28 11:07:28;;;;;;;3.88;3.08;;;;;;;;;;4963059;28;20034;-77
2022/12/28 11:10:26;;;;;;;7.50;3.20;;;;;;;;;;4967341;28;20027;-76
2022/12/28 11:12:53;;;;;;;6.90;4.28;;;;;;;;;;4969706;28;20030;-77
2022/12/28 11:15:23;;;;;;;7.22;3.90;;;;;;;;;;4970959;28;20449;-77
2022/12/28 11:17:57;;;;;;;5.05;3.65;;;;;;;;;;4971276;28;20027;-76
2022/12/28 11:20:34;;;;;;;4.60;3.45;;;;;;;;;;4970587;28;20450;-77
2022/12/28 11:23:00;;;;;;;7.00;3.72;;;;;;;;;;4969759;28;20034;-76
2022/12/28 11:25:31;;;;;;;5.30;3.10;;;;;;;;;;4964515;28;20031;-76
2022/12/28 11:27:57;;;;;;;4.72;3.13;;;;;;;;;;4965913;28;20442;-75
2022/12/28 11:30:22;;;;;;;5.47;3.33;;;;;;;;;;4973967;28;20023;-75
2022/12/28 11:32:58;;;;;;;4.47;2.80;;;;;;;;;;4970981;28;20409;-77
2022/12/28 11:35:29;;;;;;;5.15;3.00;;;;;;;;;;4991286;28;20027;-77
2022/12/28 11:37:59;;;;;;;6.93;3.30;;;;;;;;;;4991829;28;20034;-75
2022/12/28 11:40:43;;;;;;;6.72;3.95;;;;;;;;;;4973782;28;20085;-75
2022/12/28 11:43:27;;;;;;;7.47;4.22;;;;;;;;;;4977447;28;20164;-75
2022/12/28 11:46:00;;;;;;;6.43;3.72;;;;;;;;;;4992848;28;20410;-76
2022/12/28 11:48:40;;;;;;;3.85;3.22;;;;;;;;;;4976983;28;20022;-74
2022/12/28 11:51:21;;;;;;;5.55;3.50;;;;;;;;;;4982746;28;20110;-75
2022/12/28 11:53:48;;;;;;;5.63;3.63;;;;;;;;;;4977862;28;20034;-76
2022/12/28 11:56:43;;;;;;;5.72;3.65;;;;;;;;;;4974401;28;20034;-76
2022/12/28 11:59:25;;;;;;;5.90;3.53;;;;;;;;;;4960993;28;20042;-75
2022/12/28 12:02:20;;;;;;;5.75;3.67;;;;;;;;;;4969100;28;20038;-77
2022/12/28 12:04:46;;;;;;;7.13;3.97;;;;;;;;;;4984807;28;20303;-74
2022/12/28 12:07:18;;;;;;;5.32;3.65;;;;;;;;;;4968375;28;20031;-77
2022/12/28 12:09:46;;;;;;;8.50;4.38;;;;;;;;;;4968759;28;20035;-75
2022/12/28 12:12:14;;;;;;;5.75;3.78;;;;;;;;;;4969169;28;20102;-75
2022/12/28 12:14:55;;;;;;;6.18;3.78;;;;;;;;;;4972180;28;20031;-77
2022/12/28 12:17:42;;;;;;;5.10;3.05;;;;;;;;;;4971245;28;20062;-76
2022/12/28 12:20:29;;;;;;;5.97;3.45;;;;;;;;;;4971738;28;20106;-76
2022/12/28 12:23:06;;;;;;;4.50;3.00;;;;;;;;;;4969336;28;20082;-76
2022/12/28 12:25:38;;;;;;;6.57;3.58;;;;;;;;;;4966864;28;20027;-76
2022/12/28 12:28:22;;;;;;;6.78;3.70;;;;;;;;;;4987076;28;20089;-77
2022/12/28 12:30:51;;;;;;;5.38;3.03;;;;;;;;;;4973112;28;20022;-76
2022/12/28 12:33:25;;;;;;;3.78;2.47;;;;;;;;;;4968825;28;20030;-76
2022/12/28 12:36:20;;;;;;;5.05;2.90;;;;;;;;;;4971405;28;20553;-75
2022/12/28 12:39:24;;;;;;;5.32;2.88;;;;;;;;;;4958082;28;20394;-75
2022/12/28 12:42:14;;;;;;;4.30;2.55;;;;;;;;;;4971619;28;20549;-75
2022/12/28 12:45:04;;;;;;;3.55;2.65;;;;;;;;;;4967007;28;20038;-76
2022/12/28 12:48:12;;;;;;;4.93;3.30;;;;;;;;;;4973662;28;20031;-75
2022/12/28 12:51:05;;;;;;;9.55;3.20;;;;;;;;;;4985476;28;20034;-76
2022/12/28 12:54:14;;;;;;;3.88;2.70;;;;;;;;;;4972831;28;20078;-76
2022/12/28 12:56:48;;;;;;;7.03;2.80;;;;;;;;;;4971571;28;20054;-77
2022/12/28 12:59:43;;;;;;;3.58;2.50;;;;;;;;;;4969963;28;20489;-77
2022/12/28 13:02:30;;;;;;;2.80;2.10;;;;;;;;;;4970360;28;20029;-76
2022/12/28 13:05:00;;;;;;;4.00;2.40;;;;;;;;;;4972792;28;20029;-75
2022/12/28 13:07:29;;;;;;;3.72;2.60;;;;;;;;;;4972972;28;20022;-76
2022/12/28 13:09:58;;;;;;;3.75;2.63;;;;;;;;;;4972878;28;20047;-77
2022/12/28 13:12:28;;;;;;;3.50;2.40;;;;;;;;;;4971756;28;20031;-74
2022/12/28 13:15:01;;;;;;;3.90;2.38;;;;;;;;;;4961294;28;20466;-75
2022/12/28 13:17:28;;;;;;;4.53;2.60;;;;;;;;;;4971408;28;20041;-75
2022/12/28 13:20:26;;;;;;;5.45;2.67;;;;;;;;;;4969624;28;20089;-74
2022/12/28 13:22:51;;;;;;;5.18;2.35;;;;;;;;;;4942606;28;20043;-75
2022/12/28 13:25:32;;;;;;;4.38;2.25;;;;;;;;;;4970609;28;20018;-76
2022/12/28 13:28:00;;;;;;;5.32;3.30;;;;;;;;;;4970100;28;20465;-74
2022/12/28 13:30:26;;;;;;;4.50;2.60;;;;;;;;;;4973128;28;20031;-74
2022/12/28 13:32:53;;;;;;;3.45;2.50;;;;;;;;;;4971350;28;20113;-75
2022/12/28 13:35:23;;;;;;;3.70;2.40;;;;;;;;;;4972580;28;20041;-74
2022/12/28 13:38:21;;;;;;;7.75;2.30;;;;;;;;;;4974573;28;20030;-75
2022/12/28 13:40:51;;;;;;;3.78;2.15;;;;;;;;;;4981379;28;20437;-76
2022/12/28 13:43:41;;;;;;;5.10;2.70;;;;;;;;;;4982050;28;20129;-75
2022/12/28 13:46:13;;;;;;;4.32;2.90;;;;;;;;;;4980199;28;20029;-76
2022/12/28 13:48:45;;;;;;;3.60;2.80;;;;;;;;;;4970746;28;20076;-76
2022/12/28 13:51:14;;;;;;;6.20;2.95;;;;;;;;;;4985002;28;20026;-76
2022/12/28 13:53:43;;;;;;;5.57;2.67;;;;;;;;;;4965506;28;20617;-76
2022/12/28 13:56:12;;;;;;;3.78;2.60;;;;;;;;;;4967683;28;20043;-76
2022/12/28 13:58:53;;;;;;;3.83;3.13;;;;;;;;;;4969288;28;20034;-77
2022/12/28 14:01:24;;;;;;;9.52;3.42;;;;;;;;;;4970283;28;20023;-76
2022/12/28 14:03:57;;;;;;;4.47;2.90;;;;;;;;;;4970936;28;20066;-77
2022/12/28 14:06:26;;;;;;;6.72;3.10;;;;;;;;;;4966894;28;20195;-78
2022/12/28 14:08:51;;;;;;;5.80;3.67;;;;;;;;;;4965760;28;20039;-77
2022/12/28 14:11:20;;;;;;;8.07;5.20;;;;;;;;;;4970091;28;20042;-77
2022/12/28 14:13:46;;;;;;;10.00;5.88;;;;;;;;;;4970488;28;20042;-76
2022/12/28 14:16:12;;;;;;;8.60;3.53;;;;;;;;;;4972205;28;20564;-77
2022/12/28 14:18:38;;;;;;;13.75;7.15;;;;;;;;;;4969408;28;20062;-76
2022/12/28 14:21:05;;;;;;;14.63;7.43;;;;;;;;;;4966407;28;20029;-78
2022/12/28 14:23:36;;;;;;;38.75;17.10;;;;;;;;;;4960919;28;20038;-78
2022/12/28 14:26:07;;;;;;;10.35;4.53;;;;;;;;;;4966342;28;20027;-76
2022/12/28 14:28:38;;;;;;;15.10;6.30;;;;;;;;;;4968309;28;20102;-75
2022/12/28 14:31:05;;;;;;;11.75;4.43;;;;;;;;;;4968465;28;20014;-76
2022/12/28 14:33:34;;;;;;;4.15;3.20;;;;;;;;;;4969584;28;20508;-76
2022/12/28 14:36:08;;;;;;;7.10;4.63;;;;;;;;;;4964556;28;20482;-75
2022/12/28 14:38:38;;;;;;;7.63;4.63;;;;;;;;;;4986100;28;20031;-76
2022/12/28 14:41:04;;;;;;;7.22;4.90;;;;;;;;;;4971188;28;20029;-76
2022/12/28 14:43:33;;;;;;;5.32;3.63;;;;;;;;;;4969672;28;20023;-76
2022/12/28 14:46:32;;;;;;;6.13;3.92;;;;;;;;;;4964748;28;20446;-76
2022/12/28 14:48:58;;;;;;;7.10;3.80;;;;;;;;;;4986833;28;20058;-75
2022/12/28 14:51:32;;;;;;;4.43;3.17;;;;;;;;;;4972360;28;20035;-76
2022/12/28 14:54:13;;;;;;;4.70;3.50;;;;;;;;;;4978816;28;20557;-75
2022/12/28 14:56:43;;;;;;;4.88;3.50;;;;;;;;;;4969060;28;20526;-75
2022/12/28 14:59:45;;;;;;;4.75;3.17;;;;;;;;;;4969875;28;20023;-75
2022/12/28 15:02:51;;;;;;;7.00;3.10;;;;;;;;;;4965515;28;20043;-75
2022/12/28 15:05:36;;;;;;;4.03;2.90;;;;;;;;;;4927926;29;20454;-75
2022/12/28 15:08:02;;;;;;;7.30;3.20;;;;;;;;;;4928459;29;20039;-75
2022/12/28 15:10:28;;;;;;;4.30;2.80;;;;;;;;;;4951985;28;20500;-74
2022/12/28 15:12:53;;;;;;;6.22;2.92;;;;;;;;;;4965743;28;20026;-75
2022/12/28 15:15:20;;;;;;;5.05;3.20;;;;;;;;;;4969113;28;20362;-74
2022/12/28 15:17:46;;;;;;;6.47;3.00;;;;;;;;;;4966824;28;20401;-75
2022/12/28 15:20:16;;;;;;;6.30;3.85;;;;;;;;;;4969650;28;20030;-75
2022/12/28 15:22:41;;;;;;;6.30;3.00;;;;;;;;;;4967828;28;20054;-75
2022/12/28 15:25:07;;;;;;;8.05;5.07;;;;;;;;;;4984591;28;20023;-75
2022/12/28 15:27:33;;;;;;;8.60;5.20;;;;;;;;;;4966308;28;20434;-75
2022/12/28 15:29:58;;;;;;;11.20;6.20;;;;;;;;;;4970732;28;20519;-75
2022/12/28 15:32:23;;;;;;;7.65;4.82;;;;;;;;;;4968535;28;20099;-75
2022/12/28 15:34:49;;;;;;;14.95;8.35;;;;;;;;;;4970455;28;20111;-76
2022/12/28 15:37:15;;;;;;;6.25;2.67;;;;;;;;;;4970497;28;20174;-76